CheckWX is a tool to help pilots better visualize weather data.  It is not intended as a substitute for an official pre-flight weather briefing.

05:15:25 UTC

ESNK METAR
Kramfors Sollefteå Airport
Kramfors / Sollefteå, Sweden
Current

25 mins ago

ESNK 240450Z AUTO 36007KT 1500 NCD M04/M05 Q1018
Observed
Feb-24 @ 04:50 UTC
Wind
  • 360° at 7 KTS
Visibility
1,497 meters
Flight Rules
LIFR
Cloud Levels
  • Clear skies
Temperature
-4°C / 25°F
Dewpoint
-5°C / 23°F
Humidity
93%
Altimeter
30.06" Hg
Pressure
1017.92 hPa
Previous

55 mins ago

ESNK 240420Z AUTO 33006KT 0650 R17/1600U R35/P2000N BCFG NCD M03/M03 Q1018
Observed
Feb-24 @ 04:20 UTC
Wind
  • 330° at 6 KTS
Visibility
644 meters
Flight Rules
LIFR
Conditions
Patches of Fog
Cloud Levels
  • Clear skies
Temperature
-3°C / 27°F
Dewpoint
-3°C / 27°F
Humidity
100%
Altimeter
30.06" Hg
Pressure
1017.92 hPa
Previous

1 hour ago

ESNK 240350Z AUTO 34003KT 0550 R17/P2000N R35/1800D FZFG NCD M03/M03 Q1018
Observed
Feb-24 @ 03:50 UTC
Wind
  • 340° at 3 KTS
Visibility
547 meters
Flight Rules
LIFR
Conditions
Freezing Fog
Cloud Levels
  • Clear skies
Temperature
-3°C / 27°F
Dewpoint
-3°C / 27°F
Humidity
100%
Altimeter
30.06" Hg
Pressure
1017.92 hPa